Time;durP1;ratioP1;P1;durP2;ratioP2;P2;SDS_P1;SDS_P2;PMS_P1;PMS_P2;Temp;Humidity;BMP_temperature;BMP_pressure;BME280_temperature;BME280_humidity;BME280_pressure;Samples;Min_cycle;Max_cycle;Signal;HPM_P1;HPM_P2
2022/10/20 00:00:19;;;;;;;17.20;7.32;;;;;;;;;;1028351;28;20037;-78
2022/10/20 00:00:49;;;;;;;20.63;6.30;;;;;;;;;;1028223;28;20035;-78
2022/10/20 00:01:25;;;;;;;10.80;5.00;;;;;;;;;;1027983;28;20023;-78
2022/10/20 00:01:55;;;;;;;13.05;6.72;;;;;;;;;;1029403;28;20030;-78
2022/10/20 00:02:26;;;;;;;15.48;6.03;;;;;;;;;;1031839;28;20526;-78
2022/10/20 00:02:56;;;;;;;19.85;7.10;;;;;;;;;;1032694;28;20038;-78
2022/10/20 00:03:27;;;;;;;18.05;7.57;;;;;;;;;;1035889;28;20485;-78
2022/10/20 00:03:58;;;;;;;14.65;6.75;;;;;;;;;;1032024;28;20479;-78
2022/10/20 00:04:28;;;;;;;13.25;6.25;;;;;;;;;;1027818;28;20030;-78
2022/10/20 00:04:59;;;;;;;17.27;7.38;;;;;;;;;;1028205;28;20069;-78
2022/10/20 00:05:29;;;;;;;17.00;5.97;;;;;;;;;;1027934;28;20027;-78
2022/10/20 00:06:07;;;;;;;13.73;6.80;;;;;;;;;;1032385;28;20445;-78
2022/10/20 00:06:37;;;;;;;14.88;6.65;;;;;;;;;;1036056;28;20157;-78
2022/10/20 00:07:08;;;;;;;11.95;6.68;;;;;;;;;;1031876;28;20401;-78
2022/10/20 00:07:38;;;;;;;12.90;6.20;;;;;;;;;;1027913;28;20030;-78
2022/10/20 00:08:09;;;;;;;12.57;5.90;;;;;;;;;;1027953;28;20026;-78
2022/10/20 00:08:40;;;;;;;14.77;6.78;;;;;;;;;;1028071;28;20612;-78
2022/10/20 00:09:10;;;;;;;15.07;6.50;;;;;;;;;;1032105;28;20030;-78
2022/10/20 00:09:41;;;;;;;17.85;7.07;;;;;;;;;;1032246;28;20525;-78
2022/10/20 00:10:11;;;;;;;17.05;7.53;;;;;;;;;;1032566;28;20060;-78
2022/10/20 00:10:42;;;;;;;16.80;7.47;;;;;;;;;;1032506;28;20068;-78
2022/10/20 00:11:14;;;;;;;17.67;7.40;;;;;;;;;;1032302;28;20026;-78
2022/10/20 00:11:45;;;;;;;20.20;7.35;;;;;;;;;;1031990;28;20142;-78
2022/10/20 00:12:16;;;;;;;12.70;6.93;;;;;;;;;;1032065;28;20045;-78
2022/10/20 00:12:46;;;;;;;19.23;8.18;;;;;;;;;;1031976;28;20030;-78
2022/10/20 00:13:17;;;;;;;24.20;8.32;;;;;;;;;;1032029;28;20525;-78
2022/10/20 00:13:48;;;;;;;17.20;7.85;;;;;;;;;;1035817;28;20561;-78
2022/10/20 00:14:19;;;;;;;16.15;7.78;;;;;;;;;;1035966;28;20022;-78
2022/10/20 00:14:49;;;;;;;17.10;8.00;;;;;;;;;;1035852;28;20054;-78
2022/10/20 00:15:20;;;;;;;26.33;9.35;;;;;;;;;;1036174;28;20076;-78
2022/10/20 00:15:54;;;;;;;19.33;7.93;;;;;;;;;;1036007;28;20026;-78
2022/10/20 00:16:25;;;;;;;17.92;8.15;;;;;;;;;;1035444;28;20118;-78
2022/10/20 00:16:57;;;;;;;18.98;8.57;;;;;;;;;;1031920;28;20117;-78
2022/10/20 00:17:27;;;;;;;24.55;9.05;;;;;;;;;;1031791;28;20030;-78
2022/10/20 00:17:58;;;;;;;17.05;8.85;;;;;;;;;;1032125;28;20026;-78
2022/10/20 00:18:29;;;;;;;16.65;7.82;;;;;;;;;;1031550;28;20507;-78
2022/10/20 00:18:59;;;;;;;16.42;8.98;;;;;;;;;;1032257;28;20018;-78
2022/10/20 00:19:31;;;;;;;20.08;8.27;;;;;;;;;;1036008;28;20033;-78
2022/10/20 00:20:01;;;;;;;17.20;9.30;;;;;;;;;;1036052;28;20034;-78
2022/10/20 00:20:32;;;;;;;17.63;8.57;;;;;;;;;;1035905;28;20124;-78
2022/10/20 00:21:06;;;;;;;23.27;9.60;;;;;;;;;;1036075;28;20351;-78
2022/10/20 00:21:37;;;;;;;18.77;9.02;;;;;;;;;;1035372;28;20386;-78
2022/10/20 00:22:07;;;;;;;22.38;10.07;;;;;;;;;;1032306;28;20121;-78
2022/10/20 00:22:38;;;;;;;17.10;9.60;;;;;;;;;;1032128;28;20034;-78
2022/10/20 00:23:08;;;;;;;26.92;9.77;;;;;;;;;;1035760;28;20100;-78
2022/10/20 00:23:39;;;;;;;20.05;9.90;;;;;;;;;;1031926;28;20030;-78
2022/10/20 00:24:10;;;;;;;25.52;11.02;;;;;;;;;;1031976;28;20026;-78
2022/10/20 00:24:41;;;;;;;19.13;9.88;;;;;;;;;;1031907;28;20501;-78
2022/10/20 00:25:11;;;;;;;23.42;10.40;;;;;;;;;;1028046;28;20031;-77
2022/10/20 00:25:42;;;;;;;25.40;12.35;;;;;;;;;;1031930;28;20026;-77
2022/10/20 00:26:14;;;;;;;32.58;12.15;;;;;;;;;;1031880;28;20061;-78
2022/10/20 00:26:44;;;;;;;40.30;13.45;;;;;;;;;;1031938;28;20018;-78
2022/10/20 00:27:15;;;;;;;29.13;13.93;;;;;;;;;;1031755;28;20124;-78
2022/10/20 00:27:45;;;;;;;40.40;17.65;;;;;;;;;;1035936;28;20030;-78
2022/10/20 00:28:16;;;;;;;29.70;13.63;;;;;;;;;;1035928;28;20026;-78
2022/10/20 00:28:47;;;;;;;32.13;17.48;;;;;;;;;;1035936;28;20037;-78
2022/10/20 00:29:18;;;;;;;41.95;18.63;;;;;;;;;;1035791;28;20469;-78
2022/10/20 00:29:48;;;;;;;36.92;16.73;;;;;;;;;;1035829;28;20026;-78
2022/10/20 00:30:19;;;;;;;31.48;15.57;;;;;;;;;;1036092;28;20030;-78
2022/10/20 00:30:53;;;;;;;30.65;17.00;;;;;;;;;;1035835;28;20052;-78
2022/10/20 00:31:25;;;;;;;35.55;15.70;;;;;;;;;;1031918;28;20026;-78
2022/10/20 00:31:56;;;;;;;23.02;11.15;;;;;;;;;;1031914;28;20077;-78
2022/10/20 00:32:28;;;;;;;17.98;9.93;;;;;;;;;;1020362;28;20101;-78
2022/10/20 00:32:59;;;;;;;19.73;9.75;;;;;;;;;;1028554;28;20061;-78
2022/10/20 00:33:30;;;;;;;23.08;9.88;;;;;;;;;;1031667;28;20040;-78
2022/10/20 00:34:00;;;;;;;15.98;9.05;;;;;;;;;;1031520;28;20117;-78
2022/10/20 00:34:32;;;;;;;21.77;9.85;;;;;;;;;;1031435;28;20026;-78
2022/10/20 00:35:02;;;;;;;20.90;9.10;;;;;;;;;;1031630;28;20080;-78
2022/10/20 00:35:36;;;;;;;21.67;10.43;;;;;;;;;;1027976;28;20101;-78
2022/10/20 00:36:07;;;;;;;21.35;9.88;;;;;;;;;;1031290;28;20037;-78
2022/10/20 00:36:38;;;;;;;15.07;8.43;;;;;;;;;;1028251;28;20546;-78
2022/10/20 00:37:09;;;;;;;20.42;9.48;;;;;;;;;;1028238;28;20093;-78
2022/10/20 00:37:39;;;;;;;16.83;8.55;;;;;;;;;;1031626;28;20117;-78
2022/10/20 00:38:10;;;;;;;18.20;9.68;;;;;;;;;;1032048;28;20594;-78
2022/10/20 00:38:40;;;;;;;20.58;10.18;;;;;;;;;;1031106;28;20022;-78
2022/10/20 00:39:11;;;;;;;22.63;9.70;;;;;;;;;;1031444;28;20184;-78
2022/10/20 00:39:41;;;;;;;18.33;8.45;;;;;;;;;;1027470;28;20029;-78
2022/10/20 00:40:12;;;;;;;18.95;9.63;;;;;;;;;;1025108;28;20030;-78
2022/10/20 00:40:43;;;;;;;20.35;8.68;;;;;;;;;;1027002;28;20058;-78
2022/10/20 00:41:14;;;;;;;19.50;8.77;;;;;;;;;;1023540;28;20031;-78
2022/10/20 00:41:45;;;;;;;21.27;8.45;;;;;;;;;;1023717;29;20063;-78
2022/10/20 00:42:18;;;;;;;20.98;8.63;;;;;;;;;;1023732;29;20455;-78
2022/10/20 00:42:48;;;;;;;21.13;8.10;;;;;;;;;;1024028;28;20038;-78
2022/10/20 00:43:19;;;;;;;17.35;8.05;;;;;;;;;;1027679;28;20042;-78
2022/10/20 00:43:57;;;;;;;20.50;9.52;;;;;;;;;;1027702;28;20053;-78
2022/10/20 00:44:46;;;;;;;14.95;8.25;;;;;;;;;;1026675;28;20426;-78
2022/10/20 00:45:17;;;;;;;18.00;8.68;;;;;;;;;;1027529;28;20033;-78
2022/10/20 00:45:53;;;;;;;19.15;10.63;;;;;;;;;;1027548;28;20027;-78
2022/10/20 00:46:23;;;;;;;27.42;9.02;;;;;;;;;;1027684;28;20391;-78
2022/10/20 00:46:55;;;;;;;17.80;10.38;;;;;;;;;;1026781;28;20110;-78
2022/10/20 00:47:25;;;;;;;19.80;9.18;;;;;;;;;;1023932;29;20109;-78
2022/10/20 00:47:59;;;;;;;13.18;7.55;;;;;;;;;;1027576;28;20027;-78
2022/10/20 00:48:30;;;;;;;17.50;9.35;;;;;;;;;;1027368;28;20042;-78
2022/10/20 00:49:05;;;;;;;21.40;9.68;;;;;;;;;;1027908;28;20023;-78
2022/10/20 00:49:36;;;;;;;21.45;9.55;;;;;;;;;;1027584;28;20034;-78
2022/10/20 00:50:13;;;;;;;19.55;9.38;;;;;;;;;;1027087;28;20525;-78
2022/10/20 00:50:48;;;;;;;15.70;7.38;;;;;;;;;;1024186;29;20070;-78
2022/10/20 00:51:21;;;;;;;18.20;7.85;;;;;;;;;;1023970;29;20075;-78
2022/10/20 00:51:52;;;;;;;13.68;8.73;;;;;;;;;;1024253;29;20030;-78
2022/10/20 00:52:23;;;;;;;16.05;8.65;;;;;;;;;;1027671;28;20148;-78
2022/10/20 00:52:54;;;;;;;13.80;8.32;;;;;;;;;;1027703;28;20590;-78
2022/10/20 00:53:27;;;;;;;16.95;8.05;;;;;;;;;;1027746;28;20495;-78
2022/10/20 00:54:12;;;;;;;17.05;7.55;;;;;;;;;;1027809;28;20073;-78
2022/10/20 00:54:43;;;;;;;27.98;9.82;;;;;;;;;;1023519;29;20051;-78
2022/10/20 00:55:16;;;;;;;24.40;9.65;;;;;;;;;;1022364;29;20022;-78
2022/10/20 00:55:47;;;;;;;9.30;5.55;;;;;;;;;;1023714;28;20047;-78
2022/10/20 00:56:19;;;;;;;13.77;6.80;;;;;;;;;;1024177;28;20404;-78
2022/10/20 00:56:50;;;;;;;11.02;5.68;;;;;;;;;;1023596;29;20058;-78
2022/10/20 00:57:21;;;;;;;26.58;6.70;;;;;;;;;;1023646;28;20055;-78
2022/10/20 00:57:53;;;;;;;20.08;6.40;;;;;;;;;;1022974;29;20085;-78
2022/10/20 00:58:24;;;;;;;20.02;8.07;;;;;;;;;;1020152;29;20055;-78
2022/10/20 00:58:55;;;;;;;16.15;7.47;;;;;;;;;;1022711;29;20035;-78
2022/10/20 00:59:27;;;;;;;14.38;7.22;;;;;;;;;;1020196;29;20027;-78
2022/10/20 00:59:58;;;;;;;15.30;6.30;;;;;;;;;;1024143;28;20034;-78
2022/10/20 01:00:29;;;;;;;16.05;7.07;;;;;;;;;;1027965;28;20045;-78
2022/10/20 01:01:00;;;;;;;13.57;6.32;;;;;;;;;;1031778;28;20125;-78
2022/10/20 01:01:31;;;;;;;18.45;7.07;;;;;;;;;;1031419;28;20034;-78
2022/10/20 01:02:03;;;;;;;12.82;6.90;;;;;;;;;;1027714;28;20172;-78
2022/10/20 01:02:34;;;;;;;16.20;6.35;;;;;;;;;;1023479;29;20027;-78
2022/10/20 01:03:07;;;;;;;11.38;6.30;;;;;;;;;;1023846;28;20023;-78
2022/10/20 01:03:44;;;;;;;22.00;7.57;;;;;;;;;;1023689;29;20023;-78
2022/10/20 01:04:15;;;;;;;11.13;6.28;;;;;;;;;;1023729;29;20038;-78
2022/10/20 01:04:46;;;;;;;13.48;6.35;;;;;;;;;;1023592;29;20066;-78
2022/10/20 01:05:17;;;;;;;13.35;6.22;;;;;;;;;;1024794;28;20086;-78
2022/10/20 01:05:47;;;;;;;13.68;6.40;;;;;;;;;;1027781;28;20058;-78
2022/10/20 01:06:19;;;;;;;16.30;6.10;;;;;;;;;;1027833;28;20070;-78
2022/10/20 01:06:50;;;;;;;13.10;6.43;;;;;;;;;;1027461;28;20373;-78
2022/10/20 01:07:20;;;;;;;21.05;10.77;;;;;;;;;;1027487;28;20034;-79
2022/10/20 01:07:51;;;;;;;11.65;6.85;;;;;;;;;;1023848;29;20027;-78
2022/10/20 01:08:21;;;;;;;25.17;8.60;;;;;;;;;;1023733;29;20030;-78
2022/10/20 01:08:52;;;;;;;20.83;8.82;;;;;;;;;;1023643;29;20078;-78
2022/10/20 01:09:23;;;;;;;20.30;8.60;;;;;;;;;;1023934;29;20035;-78
2022/10/20 01:09:54;;;;;;;15.10;8.48;;;;;;;;;;1024177;28;20038;-78
2022/10/20 01:10:27;;;;;;;28.60;10.30;;;;;;;;;;1024022;28;20499;-78
2022/10/20 01:11:18;;;;;;;21.73;7.68;;;;;;;;;;1023966;28;20487;-78
2022/10/20 01:11:48;;;;;;;12.32;6.90;;;;;;;;;;1024146;28;20027;-78
2022/10/20 01:12:42;;;;;;;21.90;8.10;;;;;;;;;;1025828;28;20122;-78
2022/10/20 01:13:35;;;;;;;19.50;9.27;;;;;;;;;;1027702;28;20026;-78
2022/10/20 01:14:19;;;;;;;25.80;11.05;;;;;;;;;;1026866;28;20499;-78
2022/10/20 01:15:16;;;;;;;19.05;8.43;;;;;;;;;;1027088;28;20026;-78
2022/10/20 01:15:56;;;;;;;23.05;10.70;;;;;;;;;;1012202;29;20315;-78
2022/10/20 01:16:29;;;;;;;22.95;9.82;;;;;;;;;;1017457;28;20115;-78
2022/10/20 01:17:22;;;;;;;31.05;11.70;;;;;;;;;;1024381;28;20078;-78
2022/10/20 01:17:59;;;;;;;24.85;10.18;;;;;;;;;;1027465;28;20027;-78
2022/10/20 01:18:44;;;;;;;28.75;12.00;;;;;;;;;;1025930;28;20109;-78
2022/10/20 01:19:32;;;;;;;30.73;13.65;;;;;;;;;;1027696;28;20034;-78
2022/10/20 01:20:17;;;;;;;32.90;15.02;;;;;;;;;;1027753;28;20037;-78
2022/10/20 01:21:06;;;;;;;32.88;14.35;;;;;;;;;;1026924;28;20062;-78
2022/10/20 01:21:39;;;;;;;29.25;13.32;;;;;;;;;;1024704;28;20026;-78
2022/10/20 01:22:13;;;;;;;26.55;12.23;;;;;;;;;;1025251;28;20034;-78
2022/10/20 01:22:46;;;;;;;36.17;15.35;;;;;;;;;;1028738;28;20026;-78
2022/10/20 01:23:19;;;;;;;47.47;17.50;;;;;;;;;;1030090;28;20490;-78
2022/10/20 01:24:08;;;;;;;39.05;16.30;;;;;;;;;;1028123;28;20019;-78
2022/10/20 01:24:42;;;;;;;47.97;17.08;;;;;;;;;;1028645;28;20589;-78
2022/10/20 01:25:16;;;;;;;40.25;16.35;;;;;;;;;;1025670;28;20078;-78
2022/10/20 01:26:08;;;;;;;42.22;17.10;;;;;;;;;;1025241;28;20136;-78
2022/10/20 01:27:08;;;;;;;46.08;18.92;;;;;;;;;;1025366;28;20019;-78
2022/10/20 01:27:42;;;;;;;46.95;16.75;;;;;;;;;;1010728;29;20032;-78
2022/10/20 01:28:26;;;;;;;30.20;13.38;;;;;;;;;;1029917;28;20045;-78
2022/10/20 01:28:58;;;;;;;23.50;11.30;;;;;;;;;;1029415;28;20109;-78
2022/10/20 01:29:33;;;;;;;35.65;15.70;;;;;;;;;;1030623;28;20022;-78
2022/10/20 01:30:03;;;;;;;47.33;18.42;;;;;;;;;;1027795;28;20026;-78
2022/10/20 01:30:37;;;;;;;44.20;19.85;;;;;;;;;;1026367;28;20186;-78
2022/10/20 01:31:21;;;;;;;45.13;18.80;;;;;;;;;;1026558;28;20023;-78
2022/10/20 01:31:54;;;;;;;41.90;18.35;;;;;;;;;;1024401;28;20106;-78
2022/10/20 01:32:34;;;;;;;45.83;16.30;;;;;;;;;;1028288;28;20033;-78
2022/10/20 01:33:08;;;;;;;46.22;18.10;;;;;;;;;;1029153;28;20026;-78
2022/10/20 01:33:53;;;;;;;38.72;16.65;;;;;;;;;;1027169;28;20114;-78
2022/10/20 01:34:24;;;;;;;46.00;18.05;;;;;;;;;;1020561;28;20058;-78
2022/10/20 01:35:07;;;;;;;48.15;20.35;;;;;;;;;;1023613;28;20041;-78
2022/10/20 01:35:37;;;;;;;50.13;20.77;;;;;;;;;;1025682;28;20026;-78
2022/10/20 01:36:13;;;;;;;49.17;20.95;;;;;;;;;;1026725;28;20066;-78
2022/10/20 01:36:48;;;;;;;54.72;22.13;;;;;;;;;;1027667;28;20034;-78
2022/10/20 01:37:29;;;;;;;58.10;20.30;;;;;;;;;;1028334;28;20030;-78
2022/10/20 01:38:06;;;;;;;58.13;19.35;;;;;;;;;;1025415;28;20027;-78
2022/10/20 01:38:46;;;;;;;42.83;18.67;;;;;;;;;;1025937;28;20022;-78
2022/10/20 01:39:30;;;;;;;48.15;18.60;;;;;;;;;;1026633;28;20038;-78
2022/10/20 01:40:36;;;;;;;41.33;16.27;;;;;;;;;;1026536;28;20026;-78
2022/10/20 01:41:17;;;;;;;34.00;16.85;;;;;;;;;;1016941;28;20030;-78
2022/10/20 01:41:53;;;;;;;45.13;18.52;;;;;;;;;;1013081;29;20035;-78
2022/10/20 01:42:24;;;;;;;55.75;20.23;;;;;;;;;;1012923;29;20072;-78
2022/10/20 01:42:56;;;;;;;49.22;19.50;;;;;;;;;;1008964;29;20047;-78
2022/10/20 01:43:29;;;;;;;48.30;20.23;;;;;;;;;;1009903;29;20160;-78
2022/10/20 01:44:02;;;;;;;39.08;19.08;;;;;;;;;;1024089;28;20027;-78
2022/10/20 01:44:33;;;;;;;39.50;18.30;;;;;;;;;;1026840;28;20406;-78
2022/10/20 01:45:05;;;;;;;40.63;17.77;;;;;;;;;;1030060;28;20117;-78
2022/10/20 01:45:37;;;;;;;41.00;17.30;;;;;;;;;;1028358;28;20383;-78
2022/10/20 01:46:08;;;;;;;32.22;15.68;;;;;;;;;;1028071;28;20573;-78
2022/10/20 01:46:40;;;;;;;37.90;16.10;;;;;;;;;;1026141;28;20023;-78
2022/10/20 01:47:13;;;;;;;26.48;14.23;;;;;;;;;;1025325;28;20022;-78
2022/10/20 01:47:44;;;;;;;35.08;12.40;;;;;;;;;;1024694;28;20035;-78
2022/10/20 01:48:16;;;;;;;31.20;12.38;;;;;;;;;;1025168;28;20023;-78
2022/10/20 01:48:47;;;;;;;27.50;10.02;;;;;;;;;;1026662;28;20053;-78
2022/10/20 01:49:18;;;;;;;24.05;10.55;;;;;;;;;;1025982;28;20505;-78
2022/10/20 01:49:50;;;;;;;19.77;10.10;;;;;;;;;;1026845;28;20046;-79
2022/10/20 01:50:21;;;;;;;21.83;9.82;;;;;;;;;;1024486;28;20217;-78
2022/10/20 01:50:52;;;;;;;31.75;12.52;;;;;;;;;;1030716;28;20056;-78
2022/10/20 01:51:22;;;;;;;19.63;10.50;;;;;;;;;;1029151;28;20026;-79
2022/10/20 01:51:54;;;;;;;21.70;10.18;;;;;;;;;;1030505;28;20038;-78
2022/10/20 01:52:27;;;;;;;18.85;10.40;;;;;;;;;;1029657;28;20418;-79
2022/10/20 01:52:58;;;;;;;18.75;9.32;;;;;;;;;;1029863;28;20026;-78
2022/10/20 01:53:28;;;;;;;17.30;8.82;;;;;;;;;;1029545;28;20022;-78
2022/10/20 01:53:59;;;;;;;15.75;8.25;;;;;;;;;;1031778;28;20030;-78
2022/10/20 01:54:30;;;;;;;18.05;7.63;;;;;;;;;;1028179;28;20037;-79
2022/10/20 01:55:00;;;;;;;11.13;5.85;;;;;;;;;;1026098;28;20026;-78
2022/10/20 01:55:31;;;;;;;28.73;9.65;;;;;;;;;;1024848;28;20034;-78
2022/10/20 01:56:03;;;;;;;18.83;8.40;;;;;;;;;;1025369;28;20022;-78
2022/10/20 01:56:41;;;;;;;14.48;7.88;;;;;;;;;;1025260;28;20033;-79
2022/10/20 01:57:18;;;;;;;16.23;7.25;;;;;;;;;;1026021;28;20387;-78
2022/10/20 01:57:51;;;;;;;;;;;;;;;;;;1031097;28;20073;-78
2022/10/20 01:58:24;;;;;;;12.38;6.93;;;;;;;;;;1030059;28;20414;-79
2022/10/20 01:59:10;;;;;;;27.30;6.97;;;;;;;;;;1027021;28;20031;-79
2022/10/20 01:59:47;;;;;;;18.50;9.93;;;;;;;;;;1025858;28;20125;-79
2022/10/20 02:00:18;;;;;;;16.95;7.03;;;;;;;;;;1026422;28;20550;-78
2022/10/20 02:00:50;;;;;;;13.10;6.30;;;;;;;;;;1024827;28;20019;-78
2022/10/20 02:01:20;;;;;;;11.00;6.80;;;;;;;;;;1025817;28;20038;-78
2022/10/20 02:02:00;;;;;;;20.58;6.47;;;;;;;;;;1025430;28;20514;-78
2022/10/20 02:02:49;;;;;;;27.42;6.45;;;;;;;;;;1025861;28;20035;-78
2022/10/20 02:03:25;;;;;;;13.48;6.20;;;;;;;;;;1030064;28;20046;-79
2022/10/20 02:03:57;;;;;;;11.50;5.88;;;;;;;;;;1028470;28;20063;-78
2022/10/20 02:04:41;;;;;;;14.63;6.07;;;;;;;;;;1029078;28;20030;-78
2022/10/20 02:05:32;;;;;;;14.45;7.47;;;;;;;;;;1029933;28;20030;-78
2022/10/20 02:06:15;;;;;;;15.60;6.35;;;;;;;;;;1023711;28;20508;-78
2022/10/20 02:07:09;;;;;;;10.88;5.70;;;;;;;;;;1030262;28;20117;-78
2022/10/20 02:07:41;;;;;;;13.35;6.80;;;;;;;;;;1021854;28;20069;-78
2022/10/20 02:08:13;;;;;;;15.52;7.22;;;;;;;;;;1025774;28;20030;-78
2022/10/20 02:08:49;;;;;;;20.80;7.80;;;;;;;;;;1027043;28;20026;-78
2022/10/20 02:09:26;;;;;;;13.65;7.60;;;;;;;;;;1026949;28;21429;-79
2022/10/20 02:10:03;;;;;;;18.80;7.93;;;;;;;;;;1029685;28;20022;-79
2022/10/20 02:10:40;;;;;;;16.02;5.80;;;;;;;;;;1028644;28;20112;-79
2022/10/20 02:11:34;;;;;;;13.30;7.40;;;;;;;;;;1029215;28;20173;-78
2022/10/20 02:12:08;;;;;;;13.30;5.60;;;;;;;;;;1030732;28;20113;-78
2022/10/20 02:12:40;;;;;;;9.15;5.55;;;;;;;;;;1030278;28;20022;-77
2022/10/20 02:13:11;;;;;;;17.70;5.70;;;;;;;;;;1027487;28;20042;-77
2022/10/20 02:13:42;;;;;;;24.60;7.43;;;;;;;;;;1026888;28;20019;-77
2022/10/20 02:14:14;;;;;;;13.48;7.43;;;;;;;;;;1025713;28;20086;-77
2022/10/20 02:14:46;;;;;;;13.48;5.85;;;;;;;;;;1025461;28;20109;-78
2022/10/20 02:15:19;;;;;;;13.93;6.72;;;;;;;;;;1026842;28;20438;-78
2022/10/20 02:15:52;;;;;;;10.90;6.32;;;;;;;;;;1026153;28;20023;-78
2022/10/20 02:16:31;;;;;;;26.30;7.45;;;;;;;;;;1026324;28;20030;-78
2022/10/20 02:17:04;;;;;;;15.27;7.10;;;;;;;;;;1027365;28;20023;-77
2022/10/20 02:17:37;;;;;;;18.10;6.68;;;;;;;;;;1024592;28;20379;-77
2022/10/20 02:18:10;;;;;;;11.65;6.30;;;;;;;;;;1022534;29;20038;-77
2022/10/20 02:18:41;;;;;;;9.13;5.50;;;;;;;;;;1019778;29;20079;-78
2022/10/20 02:19:13;;;;;;;20.98;6.72;;;;;;;;;;1022170;28;20023;-78
2022/10/20 02:19:44;;;;;;;15.10;6.40;;;;;;;;;;1027681;28;20497;-77
2022/10/20 02:20:15;;;;;;;13.43;6.82;;;;;;;;;;1026572;28;20031;-78
2022/10/20 02:20:48;;;;;;;15.02;7.38;;;;;;;;;;1026808;28;20023;-78
2022/10/20 02:21:18;;;;;;;12.57;6.15;;;;;;;;;;1025962;28;20530;-78
2022/10/20 02:21:50;;;;;;;14.55;5.85;;;;;;;;;;1028433;28;20049;-77
2022/10/20 02:22:21;;;;;;;11.52;6.68;;;;;;;;;;1029823;28;20542;-78
2022/10/20 02:22:52;;;;;;;14.43;6.38;;;;;;;;;;1028281;28;20042;-77
2022/10/20 02:23:23;;;;;;;12.93;6.07;;;;;;;;;;1029685;28;20060;-78
2022/10/20 02:23:55;;;;;;;13.85;6.90;;;;;;;;;;1027556;28;20026;-78
2022/10/20 02:24:28;;;;;;;24.08;7.78;;;;;;;;;;1025106;28;20467;-78
2022/10/20 02:24:59;;;;;;;18.48;5.75;;;;;;;;;;1028574;28;20239;-78
2022/10/20 02:25:30;;;;;;;17.90;7.20;;;;;;;;;;1026790;28;20026;-78
2022/10/20 02:26:00;;;;;;;13.68;6.63;;;;;;;;;;1027379;28;20054;-78
2022/10/20 02:26:31;;;;;;;15.80;6.45;;;;;;;;;;1024626;28;20530;-78
2022/10/20 02:27:07;;;;;;;14.75;6.80;;;;;;;;;;1026783;28;20501;-78
2022/10/20 02:27:39;;;;;;;10.68;6.55;;;;;;;;;;1026530;28;20027;-78
2022/10/20 02:28:13;;;;;;;13.90;7.50;;;;;;;;;;1029383;28;20288;-78
2022/10/20 02:28:46;;;;;;;12.35;7.10;;;;;;;;;;1025875;28;20058;-78
2022/10/20 02:29:19;;;;;;;12.45;6.47;;;;;;;;;;1024587;28;20027;-77
2022/10/20 02:29:54;;;;;;;24.17;7.82;;;;;;;;;;1024082;29;20023;-78
2022/10/20 02:30:25;;;;;;;22.05;7.90;;;;;;;;;;1022163;29;20038;-78
2022/10/20 02:30:56;;;;;;;13.85;7.25;;;;;;;;;;1019872;29;20122;-77
2022/10/20 02:31:26;;;;;;;13.05;8.02;;;;;;;;;;1021638;28;20035;-78
2022/10/20 02:31:57;;;;;;;19.60;8.50;;;;;;;;;;1023086;29;20047;-78
2022/10/20 02:32:29;;;;;;;21.52;8.02;;;;;;;;;;1021708;28;20561;-78
2022/10/20 02:33:00;;;;;;;16.70;7.65;;;;;;;;;;1025250;28;20023;-77
2022/10/20 02:33:31;;;;;;;21.42;8.55;;;;;;;;;;1025267;28;20569;-77
2022/10/20 02:34:02;;;;;;;23.58;7.03;;;;;;;;;;1028968;28;20117;-77
2022/10/20 02:34:32;;;;;;;12.57;7.72;;;;;;;;;;1028205;28;20064;-78
2022/10/20 02:35:04;;;;;;;15.98;6.22;;;;;;;;;;1026009;28;20165;-79
2022/10/20 02:35:38;;;;;;;14.60;6.47;;;;;;;;;;1027551;28;20035;-78
2022/10/20 02:36:12;;;;;;;20.83;8.07;;;;;;;;;;1030151;28;20022;-78
2022/10/20 02:36:42;;;;;;;19.05;8.43;;;;;;;;;;1029712;28;20034;-78
2022/10/20 02:37:13;;;;;;;20.48;7.95;;;;;;;;;;1026430;28;21330;-78
2022/10/20 02:37:44;;;;;;;12.73;7.18;;;;;;;;;;1026363;28;20023;-78
2022/10/20 02:38:14;;;;;;;16.70;6.82;;;;;;;;;;1022491;28;20122;-78
2022/10/20 02:38:45;;;;;;;20.80;8.32;;;;;;;;;;1023314;28;20019;-79
2022/10/20 02:39:16;;;;;;;14.13;7.63;;;;;;;;;;1022076;29;20862;-79
2022/10/20 02:39:46;;;;;;;11.95;7.35;;;;;;;;;;1023243;28;20023;-79
2022/10/20 02:40:17;;;;;;;14.15;7.50;;;;;;;;;;1025427;28;20423;-78
2022/10/20 02:40:48;;;;;;;17.45;7.43;;;;;;;;;;1024786;28;20400;-79
2022/10/20 02:41:18;;;;;;;11.52;5.15;;;;;;;;;;1028640;28;20022;-78
2022/10/20 02:41:49;;;;;;;13.60;6.97;;;;;;;;;;1031511;28;20034;-78
2022/10/20 02:42:19;;;;;;;14.88;6.68;;;;;;;;;;1030702;28;20037;-79
2022/10/20 02:42:50;;;;;;;15.27;8.07;;;;;;;;;;1027639;28;20396;-78
2022/10/20 02:43:21;;;;;;;14.13;7.25;;;;;;;;;;1027065;28;20626;-78
2022/10/20 02:43:51;;;;;;;15.05;7.00;;;;;;;;;;1026533;28;20058;-78
2022/10/20 02:44:22;;;;;;;24.73;7.35;;;;;;;;;;1026330;28;20033;-78
2022/10/20 02:44:54;;;;;;;14.00;6.85;;;;;;;;;;1025846;28;20398;-78
2022/10/20 02:45:25;;;;;;;17.63;7.88;;;;;;;;;;1026809;28;20089;-78
2022/10/20 02:45:55;;;;;;;23.83;7.53;;;;;;;;;;1026723;28;20027;-78
2022/10/20 02:46:26;;;;;;;17.98;6.32;;;;;;;;;;1024739;28;20070;-78
2022/10/20 02:46:56;;;;;;;16.27;7.00;;;;;;;;;;1024300;28;20427;-78
2022/10/20 02:47:27;;;;;;;14.30;8.38;;;;;;;;;;1023831;28;20371;-78
2022/10/20 02:47:57;;;;;;;26.15;7.75;;;;;;;;;;1026226;28;20126;-77
2022/10/20 02:48:28;;;;;;;14.38;6.63;;;;;;;;;;1025542;28;20091;-78
2022/10/20 02:48:59;;;;;;;23.33;8.23;;;;;;;;;;1031362;28;20129;-78
2022/10/20 02:49:29;;;;;;;15.25;7.43;;;;;;;;;;1030541;28;20117;-78
2022/10/20 02:50:01;;;;;;;17.73;7.57;;;;;;;;;;1031139;28;20383;-78
2022/10/20 02:50:31;;;;;;;16.65;7.40;;;;;;;;;;1029078;28;20034;-78
2022/10/20 02:51:02;;;;;;;19.63;8.80;;;;;;;;;;1029035;28;20499;-78
2022/10/20 02:51:32;;;;;;;24.55;8.00;;;;;;;;;;1030578;28;20022;-79
2022/10/20 02:52:03;;;;;;;17.77;7.88;;;;;;;;;;1031104;28;20019;-78
2022/10/20 02:52:35;;;;;;;17.73;8.38;;;;;;;;;;1031174;28;20342;-78
2022/10/20 02:53:06;;;;;;;17.75;9.82;;;;;;;;;;1026788;28;20045;-78
2022/10/20 02:53:37;;;;;;;28.13;9.98;;;;;;;;;;1028691;28;20023;-78
2022/10/20 02:54:08;;;;;;;27.85;10.73;;;;;;;;;;1027630;28;20447;-78
2022/10/20 02:54:38;;;;;;;26.80;10.38;;;;;;;;;;1026057;28;20027;-78
2022/10/20 02:55:09;;;;;;;20.95;9.77;;;;;;;;;;1031291;28;20096;-78
2022/10/20 02:55:40;;;;;;;19.48;8.82;;;;;;;;;;1031974;28;20053;-78
2022/10/20 02:56:11;;;;;;;29.02;9.02;;;;;;;;;;1030438;28;20045;-77
2022/10/20 02:56:41;;;;;;;30.38;11.27;;;;;;;;;;1032793;28;20029;-78
2022/10/20 02:57:12;;;;;;;21.90;10.80;;;;;;;;;;1028367;28;20125;-78
2022/10/20 02:57:43;;;;;;;33.72;9.52;;;;;;;;;;1026915;28;20050;-78
2022/10/20 02:58:13;;;;;;;31.50;11.65;;;;;;;;;;1026785;28;20033;-78
2022/10/20 02:58:44;;;;;;;36.17;12.90;;;;;;;;;;1025930;28;20078;-78
2022/10/20 02:59:18;;;;;;;52.70;14.60;;;;;;;;;;1026995;28;20022;-78
2022/10/20 02:59:49;;;;;;;44.00;14.50;;;;;;;;;;1031626;28;20038;-77
2022/10/20 03:00:20;;;;;;;36.78;14.32;;;;;;;;;;1030989;28;20090;-77
2022/10/20 03:00:51;;;;;;;31.88;12.20;;;;;;;;;;1031783;28;20022;-78
2022/10/20 03:01:23;;;;;;;29.65;11.95;;;;;;;;;;1027556;28;20062;-78
2022/10/20 03:01:54;;;;;;;28.75;12.60;;;;;;;;;;1028768;28;20027;-78
2022/10/20 03:02:25;;;;;;;34.78;13.00;;;;;;;;;;1028056;28;20455;-77
2022/10/20 03:02:56;;;;;;;36.05;12.38;;;;;;;;;;1027907;28;20042;-78
2022/10/20 03:03:26;;;;;;;27.38;10.88;;;;;;;;;;1025786;28;20416;-78
2022/10/20 03:03:58;;;;;;;32.38;11.65;;;;;;;;;;1023876;28;20027;-77
2022/10/20 03:04:29;;;;;;;30.05;13.85;;;;;;;;;;1020499;28;20058;-78
2022/10/20 03:04:59;;;;;;;34.75;11.13;;;;;;;;;;1026735;28;20018;-77
2022/10/20 03:05:30;;;;;;;32.97;11.80;;;;;;;;;;1025642;28;20038;-78
2022/10/20 03:06:11;;;;;;;31.65;11.98;;;;;;;;;;1026696;28;20110;-78
2022/10/20 03:06:41;;;;;;;33.03;11.93;;;;;;;;;;1024990;28;20037;-78
2022/10/20 03:07:12;;;;;;;33.15;11.85;;;;;;;;;;1025894;28;20041;-79
2022/10/20 03:07:43;;;;;;;39.47;14.13;;;;;;;;;;1030603;28;20053;-78
2022/10/20 03:08:14;;;;;;;27.63;11.50;;;;;;;;;;1024849;28;20034;-78
2022/10/20 03:08:45;;;;;;;36.78;11.20;;;;;;;;;;1023624;28;20166;-78
2022/10/20 03:09:15;;;;;;;32.88;12.48;;;;;;;;;;1024437;28;20152;-78
2022/10/20 03:09:48;;;;;;;35.55;12.00;;;;;;;;;;1027050;28;20565;-78
2022/10/20 03:10:19;;;;;;;28.58;11.35;;;;;;;;;;1029999;28;20021;-78
2022/10/20 03:10:50;;;;;;;27.00;11.75;;;;;;;;;;1027072;28;20033;-78
2022/10/20 03:11:21;;;;;;;19.40;11.13;;;;;;;;;;1026333;28;20342;-78
2022/10/20 03:11:53;;;;;;;26.20;11.38;;;;;;;;;;1027218;28;20026;-78
2022/10/20 03:12:23;;;;;;;32.17;13.40;;;;;;;;;;1026568;28;20755;-77
2022/10/20 03:12:54;;;;;;;28.73;12.45;;;;;;;;;;1025368;28;20157;-77
2022/10/20 03:13:25;;;;;;;32.67;12.57;;;;;;;;;;1026360;28;20023;-78
2022/10/20 03:13:57;;;;;;;20.85;11.75;;;;;;;;;;1028389;28;20087;-77
2022/10/20 03:14:27;;;;;;;25.30;10.82;;;;;;;;;;1022296;28;20477;-78
2022/10/20 03:14:58;;;;;;;25.67;11.63;;;;;;;;;;1022639;28;20046;-77
2022/10/20 03:15:29;;;;;;;26.95;11.98;;;;;;;;;;1022978;28;20034;-77